Latest Weather Observations for Perth Airport

IDW60901

Issued at 7:11 pm WST Tuesday 24 January 2017 (issued every 10 minutes, with the page automatically refreshed every 10 minutes)

About weather observations | Map of Perth area stations | Latest observations for Perth area | Other Formats
Station Details ID: 009021 Name: PERTH AIRPORT Lat: -31.93 Lon: 115.98 Height: 15.4 m
Data from the previous 72 hours. | See also: Recent months at Perth Airport
Date/Time
WST
Temp
°C
App
Temp
°C
Dew
Point
°C
Rel
Hum
%
Delta-T
°C
Wind Press
QNH
hPa
Press
MSL
hPa
Rain since
9am
mm
Dir  Spd
km/h
Gust
km/h
Spd
kts
Gust
kts
24/07:00pm 26.8 21.8 10.9 37 9.0 SSW 28 32 15 17 1015.1 1015.0 0.0
24/06:30pm 28.0 21.9 9.7 31 10.2 SSW 32 37 17 20 1014.8 1014.7 0.0
24/06:00pm 29.3 23.0 8.9 28 11.3 SW 32 37 17 20 1014.4 1014.3 0.0
24/05:30pm 30.6 25.7 8.6 25 12.2 SW 24 30 13 16 1014.2 1014.1 0.0
24/05:00pm 29.9 24.7 10.4 29 11.1 SW 28 35 15 19 1014.2 1014.1 0.0
24/04:30pm 30.3 24.1 9.2 27 11.8 SW 32 39 17 21 1014.1 1014.0 0.0
24/04:00pm 31.7 25.2 8.2 23 13.0 WSW 32 37 17 20 1014.1 1014.0 0.0
24/03:30pm 32.2 26.8 9.4 24 12.9 WSW 28 35 15 19 1014.2 1014.1 0.0
24/03:00pm 32.6 27.6 9.5 24 13.1 WSW 26 33 14 18 1014.4 1014.3 0.0
24/02:30pm 33.0 30.1 4.4 16 15.0 SE 9 17 5 9 1014.8 1014.7 0.0
24/02:00pm 32.8 29.8 4.3 16 14.9 S 9 20 5 11 1015.1 1015.0 0.0
24/01:30pm 31.4 28.2 5.1 19 13.8 SSW 11 22 6 12 1015.5 1015.4 0.0
24/01:00pm 31.1 27.3 5.9 20 13.4 E 15 22 8 12 1015.9 1015.8 0.0
24/12:30pm 30.7 27.4 6.4 21 13.0 SSE 13 24 7 13 1016.3 1016.2 0.0
24/12:00pm 29.7 26.1 6.7 23 12.3 ESE 15 26 8 14 1016.6 1016.5 0.0
24/11:30am 29.0 24.6 6.6 24 11.9 E 19 28 10 15 1017.1 1017.0 0.0
24/11:00am 27.9 23.1 7.3 27 11.0 E 22 33 12 18 1017.4 1017.3 0.0
24/10:30am 26.7 21.3 7.8 30 10.1 E 26 35 14 19 1017.8 1017.7 0.0
24/10:00am 25.6 20.2 8.0 32 9.4 E 26 33 14 18 1018.0 1017.9 0.0
24/09:30am 24.1 19.0 7.8 35 8.6 ENE 24 33 13 18 1018.1 1018.0 0.0
24/09:00am 22.7 17.6 7.5 37 7.9 ENE 24 33 13 18 1018.2 1018.1 0.0
24/08:30am 21.0 16.2 7.4 41 7.0 ENE 22 32 12 17 1018.4 1018.3 0.0
24/08:00am 19.7 14.5 7.3 44 6.3 ENE 24 37 13 20 1018.5 1018.4 0.0
24/07:30am 18.0 12.0 7.0 48 5.5 E 28 39 15 21 1018.3 1018.2 0.0
24/07:00am 17.2 10.4 6.9 50 5.1 E 32 44 17 24 1018.2 1018.1 0.0
24/06:48am 16.9 10.9 7.0 52 4.9 E 28 46 15 25 1018.0 1017.9 0.0
24/06:30am 16.5 10.1 7.0 53 4.7 E 30 44 16 24 1017.7 1017.6 0.0
24/06:00am 16.0 10.8 7.1 55 4.4 E 24 43 13 23 1017.2 1017.1 0.0
24/05:30am 16.1 11.7 7.2 55 4.4 E 20 33 11 18 1017.0 1016.9 0.0
24/05:00am 16.2 12.4 7.6 56 4.3 ESE 17 35 9 19 1017.0 1016.9 0.0
24/04:30am 16.4 14.1 7.6 56 4.4 ESE 9 17 5 9 1017.1 1017.0 0.0
24/04:00am 16.7 14.0 7.5 54 4.6 SE 11 20 6 11 1017.0 1016.9 0.0
24/03:30am 17.1 14.0 7.3 52 4.9 E 13 24 7 13 1016.7 1016.6 0.0
24/03:00am 16.7 12.9 7.5 54 4.6 E 17 30 9 16 1016.8 1016.7 0.0
24/02:30am 13.5 12.1 9.4 76 2.1 ENE 7 19 4 10 1016.8 1016.7 0.0
24/02:00am 13.7 12.3 9.4 75 2.2 SSW 7 9 4 5 1016.7 1016.6 0.0
24/01:30am 13.9 11.5 10.2 78 1.9 SSW 13 15 7 8 1016.9 1016.8 0.0
24/01:00am 12.5 10.5 10.2 86 1.2 SSW 11 15 6 8 1017.1 1017.0 0.0
24/12:30am 13.3 11.3 10.2 81 1.6 SSW 11 15 6 8 1017.1 1017.0 0.0
24/12:00am 13.9 12.4 10.7 81 1.7 S 9 11 5 6 1017.3 1017.2 0.0
 
Date/Time
WST
Temp
°C
App
Temp
°C
Dew
Point
°C
Rel
Hum
%
Delta-T
°C
Wind Press
QNH
hPa
Press
MSL
hPa
Rain since
9am
mm
Dir  Spd
km/h
Gust
km/h
Spd
kts
Gust
kts
23/11:30pm 15.4 13.6 10.9 74 2.4 S 11 15 6 8 1017.4 1017.3 0.0
23/11:00pm 16.6 15.4 11.6 72 2.7 SSW 9 13 5 7 1017.7 1017.6 0.0
23/10:30pm 17.7 15.6 11.0 65 3.6 S 13 17 7 9 1017.6 1017.5 0.0
23/10:00pm 17.9 15.0 11.1 64 3.7 S 17 20 9 11 1017.8 1017.7 0.0
23/09:30pm 18.4 15.0 11.2 63 3.9 SSW 20 28 11 15 1017.6 1017.5 0.0
23/09:00pm 18.7 14.4 10.9 60 4.2 SSW 24 37 13 20 1017.3 1017.2 0.0
23/08:30pm 19.0 14.4 10.9 59 4.4 SSW 26 32 14 17 1017.1 1017.0 0.0
23/08:00pm 19.4 13.8 10.3 55 4.9 SSW 30 39 16 21 1016.8 1016.7 0.0
23/07:30pm 19.9 14.4 9.3 50 5.6 SSW 28 39 15 21 1016.5 1016.4 0.0
23/07:00pm 20.7 14.6 9.9 50 5.8 SSW 32 39 17 21 1016.2 1016.1 0.0
23/06:30pm 21.6 15.2 9.5 46 6.5 SSW 33 41 18 22 1015.8 1015.7 0.0
23/06:00pm 22.8 16.7 9.7 43 7.1 SW 32 37 17 20 1015.4 1015.3 0.0
23/05:30pm 23.1 17.0 9.9 43 7.2 SW 32 39 17 21 1015.2 1015.1 0.0
23/05:00pm 23.6 17.5 9.9 42 7.5 SW 32 39 17 21 1015.1 1015.0 0.0
23/04:30pm 24.0 17.9 9.9 41 7.7 SW 32 41 17 22 1015.1 1015.0 0.0
23/04:00pm 24.6 18.0 10.1 40 8.0 SW 35 48 19 26 1015.1 1015.0 0.0
23/03:30pm 24.3 17.7 9.9 40 7.9 SW 35 44 19 24 1015.1 1015.0 0.0
23/03:00pm 25.3 18.5 9.4 36 8.7 SW 35 44 19 24 1015.3 1015.2 0.0
23/02:46pm 25.7 19.3 9.2 35 9.0 SW 33 54 18 29 1015.3 1015.2 0.0
23/02:30pm 25.4 19.6 9.3 36 8.8 SW 30 39 16 21 1015.3 1015.2 0.0
23/02:00pm 26.1 20.1 8.8 33 9.4 SSW 30 41 16 22 1015.4 1015.3 0.0
23/01:30pm 25.0 19.9 10.6 40 8.0 SW 28 41 15 22 1015.5 1015.4 0.0
23/01:00pm 26.1 21.7 7.4 30 9.9 SSW 20 32 11 17 1015.7 1015.6 0.0
23/12:30pm 25.0 20.5 8.7 35 8.8 S 22 30 12 16 1015.8 1015.7 0.0
23/12:00pm 24.8 20.4 8.9 36 8.6 SSW 22 33 12 18 1016.2 1016.1 0.0
23/11:30am 23.7 19.7 9.0 39 7.9 S 20 33 11 18 1016.5 1016.4 0.0
23/11:00am 24.6 20.1 8.6 36 8.6 SSW 22 32 12 17 1016.7 1016.6 0.0
23/10:30am 22.1 18.1 9.2 43 6.9 SSW 20 33 11 18 1016.7 1016.6 0.0
23/10:00am 22.3 18.5 9.2 43 7.0 SSW 19 32 10 17 1016.8 1016.7 0.0
23/09:30am 21.9 18.1 8.9 43 6.9 S 19 28 10 15 1016.9 1016.8 0.0
23/09:00am 20.9 17.1 9.2 47 6.2 SSW 19 28 10 15 1016.8 1016.7 0.0
23/08:30am 19.6 16.3 9.4 51 5.4 S 17 26 9 14 1017.1 1017.0 0.0
23/08:00am 19.5 16.2 9.7 53 5.2 SSE 17 20 9 11 1017.2 1017.1 0.0
23/07:30am 17.4 17.3 9.6 60 4.1 CALM 0 9 0 5 1017.0 1016.9 0.0
23/07:00am 14.7 14.5 10.5 76 2.2 S 2 6 1 3 1016.8 1016.7 0.0
23/06:30am 11.8 10.5 9.8 87 1.0 S 7 7 4 4 1016.4 1016.3 0.0
23/06:00am 9.8 9.2 9.0 95 0.4 S 2 7 1 4 1015.9 1015.8 0.0
23/05:30am 10.0 8.6 9.4 96 0.3 S 7 7 4 4 1015.5 1015.4 0.0
23/05:00am 10.4 10.3 9.6 95 0.4 CALM 0 0 0 0 1015.1 1015.0 0.0
23/04:30am 10.2 8.8 9.4 95 0.4 S 7 9 4 5 1014.8 1014.7 0.0
23/04:00am 10.7 9.3 9.5 92 0.6 S 7 7 4 4 1014.6 1014.5 0.0
23/03:30am 11.6 9.9 10.0 90 0.8 S 9 11 5 6 1014.4 1014.3 0.0
23/03:00am 13.0 11.1 10.5 85 1.3 S 11 13 6 7 1014.3 1014.2 0.0
23/02:30am 14.5 12.3 10.7 78 2.0 S 13 17 7 9 1014.2 1014.1 0.0
23/02:00am 15.0 11.8 11.1 77 2.1 S 19 26 10 14 1014.3 1014.2 0.0
23/01:30am 15.5 12.2 11.0 74 2.4 S 19 26 10 14 1014.3 1014.2 0.0
23/01:00am 16.3 13.8 11.1 71 2.8 SSW 15 19 8 10 1014.2 1014.1 0.0
23/12:30am 16.7 14.2 10.9 68 3.1 SSW 15 17 8 9 1014.1 1014.0 0.0
23/12:00am 17.2 14.1 10.4 64 3.6 SSW 17 20 9 11 1013.9 1013.8 0.0
 
Date/Time
WST
Temp
°C
App
Temp
°C
Dew
Point
°C
Rel
Hum
%
Delta-T
°C
Wind Press
QNH
hPa
Press
MSL
hPa
Rain since
9am
mm
Dir  Spd
km/h
Gust
km/h
Spd
kts
Gust
kts
22/11:30pm 17.5 13.9 10.4 63 3.8 SSW 20 28 11 15 1013.7 1013.6 0.0
22/11:00pm 17.8 14.3 10.1 60 4.1 SSW 19 24 10 13 1013.7 1013.6 0.0
22/10:30pm 18.0 14.6 10.5 61 4.0 SSW 19 24 10 13 1014.0 1013.9 0.0
22/10:00pm 18.2 14.7 11.0 63 3.9 SSW 20 30 11 16 1014.0 1013.9 0.0
22/09:30pm 18.5 13.9 11.1 62 4.0 SSW 26 32 14 17 1013.8 1013.7 0.0
22/09:00pm 18.7 14.9 11.2 61 4.1 SSW 22 30 12 16 1013.4 1013.3 0.0
22/08:30pm 18.8 13.5 11.3 61 4.1 SSW 30 37 16 20 1013.1 1013.0 0.0
22/08:00pm 19.2 13.4 10.7 58 4.6 SSW 32 41 17 22 1012.9 1012.8 0.0
22/07:30pm 19.5 13.6 10.4 55 4.9 SSW 32 39 17 21 1012.6 1012.5 0.0
22/07:00pm 20.2 14.2 10.2 52 5.4 SSW 32 44 17 24 1012.3 1012.2 0.0
22/06:30pm 21.0 15.4 11.4 54 5.3 SW 32 39 17 21 1011.8 1011.7 0.0
22/06:00pm 21.7 15.4 11.0 50 5.9 SSW 35 44 19 24 1011.3 1011.2 0.0
22/05:30pm 21.8 15.1 10.9 50 6.0 SW 37 48 20 26 1011.1 1011.0 0.0
22/05:00pm 22.5 16.1 10.7 47 6.5 SW 35 44 19 24 1010.7 1010.6 0.0
22/04:30pm 23.0 16.6 10.7 45 6.8 SW 35 50 19 27 1010.5 1010.4 0.0
22/04:00pm 24.0 18.0 10.0 41 7.7 SW 32 43 17 23 1010.3 1010.2 0.0
22/03:30pm 23.3 17.1 10.0 43 7.3 SW 33 43 18 23 1010.5 1010.4 0.0
22/03:00pm 24.8 19.3 9.2 37 8.5 SW 28 37 15 20 1010.6 1010.5 0.0
22/02:30pm 24.1 17.8 8.9 38 8.2 SW 32 41 17 22 1010.8 1010.7 0.0
22/02:00pm 23.6 17.7 10.4 43 7.3 SW 32 41 17 22 1010.8 1010.7 0.0
22/01:30pm 23.9 17.1 10.8 43 7.3 SW 37 46 20 25 1010.7 1010.6 0.0
22/01:19pm 24.2 18.3 11.2 44 7.3 SW 33 52 18 28 1010.7 1010.6 0.0
22/01:00pm 25.2 18.7 11.7 43 7.7 SW 37 48 20 26 1010.5 1010.4 0.0
22/12:30pm 24.5 19.0 11.8 45 7.2 SW 32 48 17 26 1010.5 1010.4 0.0
22/12:00pm 25.6 19.6 12.0 42 7.8 SW 35 46 19 25 1010.3 1010.2 0.0
22/11:30am 25.5 20.0 12.3 43 7.6 SW 33 46 18 25 1010.2 1010.1 0.0
22/11:04am 25.8 21.5 13.1 45 7.4 SW 28 46 15 25 1010.1 1010.0 0.0
22/11:00am 25.5 21.2 13.2 46 7.2 SW 28 39 15 21 1010.1 1010.0 0.0
22/10:30am 24.8 20.1 12.0 44 7.3 SW 28 37 15 20 1010.2 1010.1 0.0
22/10:00am 24.3 19.8 12.7 48 6.7 SSW 28 37 15 20 1010.3 1010.2 0.0
22/09:30am 23.0 18.5 12.7 52 5.9 SSW 28 41 15 22 1010.2 1010.1 0.0
22/09:00am 21.9 17.5 12.8 56 5.2 S 28 39 15 21 1010.2 1010.1 0.0
22/08:30am 21.3 16.1 12.9 58 4.8 S 32 41 17 22 1010.4 1010.3 0.0
22/08:00am 19.7 13.5 12.6 63 4.0 SSW 37 48 20 26 1010.4 1010.3 0.0
22/07:30am 19.0 13.5 12.4 65 3.7 S 33 43 18 23 1010.1 1010.0 0.0
22/07:00am 17.8 12.9 12.6 71 2.9 S 30 37 16 20 1010.0 1009.9 0.0
22/06:30am 16.3 12.5 12.5 78 2.1 S 24 30 13 16 1009.6 1009.5 0.0
22/06:00am 15.9 12.1 12.4 80 1.9 S 24 33 13 18 1009.3 1009.2 0.0
22/05:30am 15.9 11.8 12.6 81 1.8 SSW 26 33 14 18 1009.0 1008.9 0.0
22/05:00am 16.0 12.3 12.8 81 1.8 SSW 24 32 13 17 1008.8 1008.7 0.0
22/04:30am 16.3 13.0 12.9 80 1.9 SSW 22 32 12 17 1008.6 1008.5 0.0
22/04:00am 16.7 12.3 12.9 78 2.1 SSW 28 35 15 19 1008.4 1008.3 0.0
22/03:30am 17.2 12.8 12.9 76 2.4 SSW 28 35 15 19 1008.2 1008.1 0.0
22/03:00am 17.8 12.7 13.2 74 2.6 SSW 32 39 17 21 1008.0 1007.9 0.0
22/02:30am 18.3 13.5 13.0 71 3.0 SSW 30 41 16 22 1007.8 1007.7 0.0
22/02:00am 18.9 14.2 13.1 69 3.3 SSW 30 37 16 20 1007.6 1007.5 0.0
22/01:30am 19.3 16.2 14.5 74 2.8 SSW 24 32 13 17 1007.8 1007.7 0.0
22/01:00am 19.3 18.1 15.0 76 2.5 SSW 15 19 8 10 1008.0 1007.9 0.0
22/12:30am 19.6 18.0 15.0 75 2.7 SSW 17 20 9 11 1008.1 1008.0 0.0
22/12:00am 20.0 18.7 14.9 72 3.0 SSW 15 19 8 10 1008.2 1008.1 0.0
 
Date/Time
WST
Temp
°C
App
Temp
°C
Dew
Point
°C
Rel
Hum
%
Delta-T
°C
Wind Press
QNH
hPa
Press
MSL
hPa
Rain since
9am
mm
Dir  Spd
km/h
Gust
km/h
Spd
kts
Gust
kts
21/11:30pm 20.4 18.4 15.0 71 3.2 SSW 19 24 10 13 1008.4 1008.3 0.0
21/11:00pm 20.6 18.7 15.2 71 3.2 SSW 19 24 10 13 1008.5 1008.4 0.0
21/10:30pm 20.8 19.3 15.4 71 3.2 SSW 17 26 9 14 1008.4 1008.3 0.0
21/10:00pm 21.0 18.9 15.3 70 3.4 SW 20 30 11 16 1008.2 1008.1 0.0
21/09:30pm 21.2 18.8 15.3 69 3.5 SW 22 28 12 15 1008.1 1008.0 0.0
21/09:00pm 21.6 19.7 15.2 67 3.8 SSW 19 26 10 14 1008.0 1007.9 0.0
21/08:30pm 22.1 19.7 15.4 65 4.0 SSW 22 30 12 16 1007.8 1007.7 0.0
21/08:00pm 22.5 19.2 15.1 63 4.4 SSW 26 33 14 18 1007.4 1007.3 0.0
21/07:30pm 23.3 19.4 14.5 57 5.2 SW 28 37 15 20 1007.2 1007.1 0.0

Latest Capital City Observations: Canberra | Sydney | Melbourne | Brisbane | Adelaide | Perth | Hobart | Darwin

Other Formats:

Comma delimited format used in spreadsheet applications
http://www.bom.gov.au/fwo/IDW60901/IDW60901.94610.axf

JavaScript Object Notation format (JSON) in row-major order
http://www.bom.gov.au/fwo/IDW60901/IDW60901.94610.json